sensor_id;sensor_type;location;lat;lon;timestamp;P1;durP1;ratioP1;P2;durP2;ratioP2
52180;SDS011;38158;53.338;6.514;2023-02-04T00:01:43;42.50;;;4.68;;
52180;SDS011;38158;53.338;6.514;2023-02-04T00:04:11;32.95;;;4.30;;
52180;SDS011;38158;53.338;6.514;2023-02-04T00:06:37;34.72;;;5.05;;
52180;SDS011;38158;53.338;6.514;2023-02-04T00:09:02;30.25;;;4.45;;
52180;SDS011;38158;53.338;6.514;2023-02-04T00:11:28;40.90;;;5.93;;
52180;SDS011;38158;53.338;6.514;2023-02-04T00:13:54;46.55;;;5.75;;
52180;SDS011;38158;53.338;6.514;2023-02-04T00:16:19;25.95;;;3.78;;
52180;SDS011;38158;53.338;6.514;2023-02-04T00:18:45;36.63;;;5.22;;
52180;SDS011;38158;53.338;6.514;2023-02-04T00:21:11;29.55;;;4.95;;
52180;SDS011;38158;53.338;6.514;2023-02-04T00:23:36;31.00;;;4.63;;
52180;SDS011;38158;53.338;6.514;2023-02-04T00:26:02;36.88;;;4.93;;
52180;SDS011;38158;53.338;6.514;2023-02-04T00:28:28;49.95;;;5.05;;
52180;SDS011;38158;53.338;6.514;2023-02-04T00:30:54;34.63;;;4.13;;
52180;SDS011;38158;53.338;6.514;2023-02-04T00:33:19;48.38;;;5.85;;
52180;SDS011;38158;53.338;6.514;2023-02-04T00:35:45;45.90;;;5.32;;
52180;SDS011;38158;53.338;6.514;2023-02-04T00:38:11;33.47;;;5.00;;
52180;SDS011;38158;53.338;6.514;2023-02-04T00:40:36;37.08;;;4.80;;
52180;SDS011;38158;53.338;6.514;2023-02-04T00:43:02;30.45;;;4.00;;
52180;SDS011;38158;53.338;6.514;2023-02-04T00:45:28;40.50;;;5.82;;
52180;SDS011;38158;53.338;6.514;2023-02-04T00:47:54;42.95;;;5.40;;
52180;SDS011;38158;53.338;6.514;2023-02-04T00:50:21;37.60;;;5.55;;
52180;SDS011;38158;53.338;6.514;2023-02-04T00:52:47;32.90;;;4.13;;
52180;SDS011;38158;53.338;6.514;2023-02-04T00:55:12;34.83;;;6.25;;
52180;SDS011;38158;53.338;6.514;2023-02-04T00:57:39;37.80;;;4.68;;
52180;SDS011;38158;53.338;6.514;2023-02-04T01:00:05;33.22;;;4.25;;
52180;SDS011;38158;53.338;6.514;2023-02-04T01:02:31;32.55;;;3.88;;
52180;SDS011;38158;53.338;6.514;2023-02-04T01:04:57;34.10;;;4.85;;
52180;SDS011;38158;53.338;6.514;2023-02-04T01:07:23;39.92;;;4.90;;
52180;SDS011;38158;53.338;6.514;2023-02-04T01:09:48;55.22;;;6.18;;
52180;SDS011;38158;53.338;6.514;2023-02-04T01:12:14;36.80;;;4.55;;
52180;SDS011;38158;53.338;6.514;2023-02-04T01:14:40;41.58;;;5.70;;
52180;SDS011;38158;53.338;6.514;2023-02-04T01:17:05;34.70;;;4.60;;
52180;SDS011;38158;53.338;6.514;2023-02-04T01:19:31;35.00;;;5.47;;
52180;SDS011;38158;53.338;6.514;2023-02-04T01:21:57;34.45;;;4.38;;
52180;SDS011;38158;53.338;6.514;2023-02-04T01:24:22;26.20;;;3.78;;
52180;SDS011;38158;53.338;6.514;2023-02-04T01:26:48;35.85;;;4.68;;
52180;SDS011;38158;53.338;6.514;2023-02-04T01:29:14;37.08;;;5.45;;
52180;SDS011;38158;53.338;6.514;2023-02-04T01:31:39;29.33;;;3.90;;
52180;SDS011;38158;53.338;6.514;2023-02-04T01:34:05;40.55;;;5.43;;
52180;SDS011;38158;53.338;6.514;2023-02-04T01:36:31;35.90;;;5.35;;
52180;SDS011;38158;53.338;6.514;2023-02-04T01:38:57;40.50;;;4.57;;
52180;SDS011;38158;53.338;6.514;2023-02-04T01:41:25;43.03;;;5.55;;
52180;SDS011;38158;53.338;6.514;2023-02-04T01:43:51;40.05;;;5.70;;
52180;SDS011;38158;53.338;6.514;2023-02-04T01:46:17;33.25;;;5.35;;
52180;SDS011;38158;53.338;6.514;2023-02-04T01:48:43;40.15;;;5.13;;
52180;SDS011;38158;53.338;6.514;2023-02-04T01:51:10;39.00;;;5.40;;
52180;SDS011;38158;53.338;6.514;2023-02-04T01:53:39;45.47;;;5.15;;
52180;SDS011;38158;53.338;6.514;2023-02-04T01:56:15;32.45;;;4.45;;
52180;SDS011;38158;53.338;6.514;2023-02-04T01:58:44;38.53;;;4.93;;
52180;SDS011;38158;53.338;6.514;2023-02-04T02:01:14;38.10;;;5.85;;
52180;SDS011;38158;53.338;6.514;2023-02-04T02:03:57;36.40;;;4.20;;
52180;SDS011;38158;53.338;6.514;2023-02-04T02:06:23;57.33;;;5.60;;
52180;SDS011;38158;53.338;6.514;2023-02-04T02:08:49;45.45;;;4.78;;
52180;SDS011;38158;53.338;6.514;2023-02-04T02:11:15;40.63;;;4.90;;
52180;SDS011;38158;53.338;6.514;2023-02-04T02:13:41;41.45;;;5.82;;
52180;SDS011;38158;53.338;6.514;2023-02-04T02:16:06;38.80;;;6.82;;
52180;SDS011;38158;53.338;6.514;2023-02-04T02:18:32;42.38;;;4.85;;
52180;SDS011;38158;53.338;6.514;2023-02-04T02:20:58;44.88;;;4.65;;
52180;SDS011;38158;53.338;6.514;2023-02-04T02:23:46;34.50;;;4.68;;
52180;SDS011;38158;53.338;6.514;2023-02-04T02:26:15;41.40;;;5.93;;
52180;SDS011;38158;53.338;6.514;2023-02-04T02:28:42;48.00;;;5.97;;
52180;SDS011;38158;53.338;6.514;2023-02-04T02:31:09;50.65;;;5.65;;
52180;SDS011;38158;53.338;6.514;2023-02-04T02:33:34;46.88;;;5.97;;
52180;SDS011;38158;53.338;6.514;2023-02-04T02:36:01;44.53;;;6.15;;
52180;SDS011;38158;53.338;6.514;2023-02-04T02:38:27;55.13;;;7.07;;
52180;SDS011;38158;53.338;6.514;2023-02-04T02:40:52;52.17;;;5.53;;
52180;SDS011;38158;53.338;6.514;2023-02-04T02:43:20;46.50;;;6.03;;
52180;SDS011;38158;53.338;6.514;2023-02-04T02:45:48;47.45;;;6.30;;
52180;SDS011;38158;53.338;6.514;2023-02-04T02:48:14;51.58;;;5.97;;
52180;SDS011;38158;53.338;6.514;2023-02-04T02:50:41;51.92;;;8.27;;
52180;SDS011;38158;53.338;6.514;2023-02-04T02:53:11;48.70;;;6.30;;
52180;SDS011;38158;53.338;6.514;2023-02-04T02:55:39;48.20;;;6.07;;
52180;SDS011;38158;53.338;6.514;2023-02-04T02:58:09;53.25;;;5.80;;
52180;SDS011;38158;53.338;6.514;2023-02-04T03:01:06;62.20;;;6.28;;
52180;SDS011;38158;53.338;6.514;2023-02-04T03:03:51;47.55;;;7.20;;
52180;SDS011;38158;53.338;6.514;2023-02-04T03:06:21;39.35;;;5.07;;
52180;SDS011;38158;53.338;6.514;2023-02-04T03:08:50;36.05;;;5.28;;
52180;SDS011;38158;53.338;6.514;2023-02-04T03:11:19;55.28;;;7.50;;
52180;SDS011;38158;53.338;6.514;2023-02-04T03:13:46;32.63;;;4.40;;
52180;SDS011;38158;53.338;6.514;2023-02-04T03:16:13;43.05;;;5.75;;
52180;SDS011;38158;53.338;6.514;2023-02-04T03:18:38;33.97;;;4.50;;
52180;SDS011;38158;53.338;6.514;2023-02-04T03:21:04;27.67;;;4.03;;
52180;SDS011;38158;53.338;6.514;2023-02-04T03:23:32;30.40;;;4.22;;
52180;SDS011;38158;53.338;6.514;2023-02-04T03:25:59;42.05;;;4.68;;
52180;SDS011;38158;53.338;6.514;2023-02-04T03:28:25;36.28;;;4.38;;
52180;SDS011;38158;53.338;6.514;2023-02-04T03:30:51;40.00;;;5.22;;
52180;SDS011;38158;53.338;6.514;2023-02-04T03:33:21;38.25;;;4.85;;
52180;SDS011;38158;53.338;6.514;2023-02-04T03:35:48;26.70;;;4.22;;
52180;SDS011;38158;53.338;6.514;2023-02-04T03:38:14;28.58;;;3.65;;
52180;SDS011;38158;53.338;6.514;2023-02-04T03:40:39;29.80;;;4.38;;
52180;SDS011;38158;53.338;6.514;2023-02-04T03:43:05;27.02;;;4.30;;
52180;SDS011;38158;53.338;6.514;2023-02-04T03:45:31;26.90;;;3.90;;
52180;SDS011;38158;53.338;6.514;2023-02-04T03:47:56;24.50;;;3.05;;
52180;SDS011;38158;53.338;6.514;2023-02-04T03:50:22;31.98;;;4.97;;
52180;SDS011;38158;53.338;6.514;2023-02-04T03:52:47;30.50;;;3.42;;
52180;SDS011;38158;53.338;6.514;2023-02-04T03:55:15;22.42;;;3.35;;
52180;SDS011;38158;53.338;6.514;2023-02-04T03:57:41;30.13;;;3.65;;
52180;SDS011;38158;53.338;6.514;2023-02-04T04:00:07;21.92;;;2.95;;
52180;SDS011;38158;53.338;6.514;2023-02-04T04:02:33;19.48;;;3.13;;
52180;SDS011;38158;53.338;6.514;2023-02-04T04:04:59;26.20;;;3.28;;
52180;SDS011;38158;53.338;6.514;2023-02-04T04:07:25;21.30;;;3.35;;
52180;SDS011;38158;53.338;6.514;2023-02-04T04:09:51;19.15;;;4.20;;
52180;SDS011;38158;53.338;6.514;2023-02-04T04:12:16;24.13;;;9.50;;
52180;SDS011;38158;53.338;6.514;2023-02-04T04:14:42;26.95;;;6.18;;
52180;SDS011;38158;53.338;6.514;2023-02-04T04:17:07;35.58;;;5.10;;
52180;SDS011;38158;53.338;6.514;2023-02-04T04:19:33;27.85;;;4.07;;
52180;SDS011;38158;53.338;6.514;2023-02-04T04:21:59;23.75;;;3.40;;
52180;SDS011;38158;53.338;6.514;2023-02-04T04:24:25;16.48;;;3.03;;
52180;SDS011;38158;53.338;6.514;2023-02-04T04:26:51;18.60;;;3.47;;
52180;SDS011;38158;53.338;6.514;2023-02-04T04:29:16;26.42;;;3.55;;
52180;SDS011;38158;53.338;6.514;2023-02-04T04:31:42;21.58;;;3.35;;
52180;SDS011;38158;53.338;6.514;2023-02-04T04:34:09;27.08;;;3.40;;
52180;SDS011;38158;53.338;6.514;2023-02-04T04:36:35;19.20;;;3.70;;
52180;SDS011;38158;53.338;6.514;2023-02-04T04:39:00;26.35;;;3.15;;
52180;SDS011;38158;53.338;6.514;2023-02-04T04:41:26;21.98;;;3.03;;
52180;SDS011;38158;53.338;6.514;2023-02-04T04:43:52;29.27;;;3.42;;
52180;SDS011;38158;53.338;6.514;2023-02-04T04:46:18;22.92;;;3.90;;
52180;SDS011;38158;53.338;6.514;2023-02-04T04:48:43;22.52;;;3.22;;
52180;SDS011;38158;53.338;6.514;2023-02-04T04:51:09;24.85;;;4.13;;
52180;SDS011;38158;53.338;6.514;2023-02-04T04:53:35;20.35;;;3.50;;
52180;SDS011;38158;53.338;6.514;2023-02-04T04:56:01;20.30;;;3.05;;
52180;SDS011;38158;53.338;6.514;2023-02-04T04:58:26;24.55;;;3.95;;
52180;SDS011;38158;53.338;6.514;2023-02-04T05:00:52;24.25;;;3.30;;
52180;SDS011;38158;53.338;6.514;2023-02-04T05:03:18;18.80;;;3.45;;
52180;SDS011;38158;53.338;6.514;2023-02-04T05:05:43;22.60;;;3.22;;
52180;SDS011;38158;53.338;6.514;2023-02-04T05:08:09;19.90;;;3.33;;
52180;SDS011;38158;53.338;6.514;2023-02-04T05:10:38;17.05;;;2.90;;
52180;SDS011;38158;53.338;6.514;2023-02-04T05:13:04;19.27;;;2.55;;
52180;SDS011;38158;53.338;6.514;2023-02-04T05:15:30;21.80;;;3.45;;
52180;SDS011;38158;53.338;6.514;2023-02-04T05:17:55;27.10;;;4.32;;
52180;SDS011;38158;53.338;6.514;2023-02-04T05:20:22;21.40;;;2.63;;
52180;SDS011;38158;53.338;6.514;2023-02-04T05:22:48;37.87;;;4.37;;
52180;SDS011;38158;53.338;6.514;2023-02-04T05:25:14;23.10;;;2.85;;
52180;SDS011;38158;53.338;6.514;2023-02-04T05:27:43;22.10;;;2.95;;
52180;SDS011;38158;53.338;6.514;2023-02-04T05:30:09;17.20;;;2.40;;
52180;SDS011;38158;53.338;6.514;2023-02-04T05:32:36;23.35;;;2.95;;
52180;SDS011;38158;53.338;6.514;2023-02-04T05:35:02;23.00;;;3.00;;
52180;SDS011;38158;53.338;6.514;2023-02-04T05:37:28;19.10;;;4.07;;
52180;SDS011;38158;53.338;6.514;2023-02-04T05:39:54;21.73;;;2.40;;
52180;SDS011;38158;53.338;6.514;2023-02-04T05:42:19;25.52;;;3.08;;
52180;SDS011;38158;53.338;6.514;2023-02-04T05:44:45;11.93;;;2.40;;
52180;SDS011;38158;53.338;6.514;2023-02-04T05:47:11;23.73;;;3.30;;
52180;SDS011;38158;53.338;6.514;2023-02-04T05:49:36;26.35;;;2.95;;
52180;SDS011;38158;53.338;6.514;2023-02-04T05:52:02;19.65;;;2.97;;
52180;SDS011;38158;53.338;6.514;2023-02-04T05:54:28;22.38;;;2.83;;
52180;SDS011;38158;53.338;6.514;2023-02-04T05:56:54;19.73;;;3.15;;
52180;SDS011;38158;53.338;6.514;2023-02-04T05:59:19;22.10;;;2.78;;
52180;SDS011;38158;53.338;6.514;2023-02-04T06:01:45;17.80;;;2.40;;
52180;SDS011;38158;53.338;6.514;2023-02-04T06:04:11;19.20;;;2.78;;
52180;SDS011;38158;53.338;6.514;2023-02-04T06:06:36;11.25;;;2.13;;
52180;SDS011;38158;53.338;6.514;2023-02-04T06:09:02;17.65;;;2.55;;
52180;SDS011;38158;53.338;6.514;2023-02-04T06:11:28;19.33;;;3.15;;
52180;SDS011;38158;53.338;6.514;2023-02-04T06:13:54;21.38;;;2.33;;
52180;SDS011;38158;53.338;6.514;2023-02-04T06:16:19;11.98;;;2.35;;
52180;SDS011;38158;53.338;6.514;2023-02-04T06:18:45;17.88;;;2.58;;
52180;SDS011;38158;53.338;6.514;2023-02-04T06:21:11;22.35;;;2.97;;
52180;SDS011;38158;53.338;6.514;2023-02-04T06:23:36;20.30;;;2.67;;
52180;SDS011;38158;53.338;6.514;2023-02-04T06:26:02;18.42;;;3.30;;
52180;SDS011;38158;53.338;6.514;2023-02-04T06:28:28;19.23;;;2.75;;
52180;SDS011;38158;53.338;6.514;2023-02-04T06:30:54;16.33;;;2.75;;
52180;SDS011;38158;53.338;6.514;2023-02-04T06:33:19;14.73;;;2.72;;
52180;SDS011;38158;53.338;6.514;2023-02-04T06:35:46;13.82;;;2.55;;
52180;SDS011;38158;53.338;6.514;2023-02-04T06:38:12;22.17;;;4.72;;
52180;SDS011;38158;53.338;6.514;2023-02-04T06:40:38;24.38;;;6.53;;
52180;SDS011;38158;53.338;6.514;2023-02-04T06:43:03;24.65;;;5.13;;
52180;SDS011;38158;53.338;6.514;2023-02-04T06:45:29;22.60;;;7.35;;
52180;SDS011;38158;53.338;6.514;2023-02-04T06:47:55;19.60;;;4.20;;
52180;SDS011;38158;53.338;6.514;2023-02-04T06:50:20;25.25;;;5.88;;
52180;SDS011;38158;53.338;6.514;2023-02-04T06:52:46;22.15;;;5.32;;
52180;SDS011;38158;53.338;6.514;2023-02-04T06:55:13;27.25;;;4.00;;
52180;SDS011;38158;53.338;6.514;2023-02-04T06:57:39;35.38;;;6.70;;
52180;SDS011;38158;53.338;6.514;2023-02-04T07:00:05;26.95;;;7.68;;
52180;SDS011;38158;53.338;6.514;2023-02-04T07:02:33;17.98;;;4.05;;
52180;SDS011;38158;53.338;6.514;2023-02-04T07:04:59;23.95;;;5.20;;
52180;SDS011;38158;53.338;6.514;2023-02-04T07:07:25;15.57;;;2.72;;
52180;SDS011;38158;53.338;6.514;2023-02-04T07:09:51;20.80;;;3.35;;
52180;SDS011;38158;53.338;6.514;2023-02-04T07:12:17;16.85;;;2.65;;
52180;SDS011;38158;53.338;6.514;2023-02-04T07:14:43;20.98;;;3.28;;
52180;SDS011;38158;53.338;6.514;2023-02-04T07:17:09;22.63;;;3.78;;
52180;SDS011;38158;53.338;6.514;2023-02-04T07:19:34;17.27;;;3.55;;
52180;SDS011;38158;53.338;6.514;2023-02-04T07:22:01;20.38;;;4.80;;
52180;SDS011;38158;53.338;6.514;2023-02-04T07:24:27;16.25;;;3.17;;
52180;SDS011;38158;53.338;6.514;2023-02-04T07:26:53;14.23;;;3.65;;
52180;SDS011;38158;53.338;6.514;2023-02-04T07:29:18;19.10;;;3.47;;
52180;SDS011;38158;53.338;6.514;2023-02-04T07:31:45;19.02;;;3.28;;
52180;SDS011;38158;53.338;6.514;2023-02-04T07:34:11;28.53;;;2.77;;
52180;SDS011;38158;53.338;6.514;2023-02-04T07:39:04;11.82;;;2.10;;
52180;SDS011;38158;53.338;6.514;2023-02-04T07:41:29;13.30;;;3.60;;
52180;SDS011;38158;53.338;6.514;2023-02-04T07:43:55;13.90;;;2.10;;
52180;SDS011;38158;53.338;6.514;2023-02-04T07:46:21;16.98;;;2.85;;
52180;SDS011;38158;53.338;6.514;2023-02-04T07:48:47;10.02;;;1.73;;
52180;SDS011;38158;53.338;6.514;2023-02-04T07:51:12;16.45;;;2.15;;
52180;SDS011;38158;53.338;6.514;2023-02-04T07:53:38;15.05;;;2.78;;
52180;SDS011;38158;53.338;6.514;2023-02-04T07:56:04;14.65;;;2.42;;
52180;SDS011;38158;53.338;6.514;2023-02-04T07:58:29;14.52;;;2.03;;
52180;SDS011;38158;53.338;6.514;2023-02-04T08:00:55;16.88;;;2.25;;
52180;SDS011;38158;53.338;6.514;2023-02-04T08:03:21;14.50;;;2.60;;
52180;SDS011;38158;53.338;6.514;2023-02-04T08:05:46;17.00;;;2.45;;
52180;SDS011;38158;53.338;6.514;2023-02-04T08:08:12;9.95;;;2.05;;
52180;SDS011;38158;53.338;6.514;2023-02-04T08:10:38;17.42;;;2.33;;
52180;SDS011;38158;53.338;6.514;2023-02-04T08:13:03;18.35;;;2.58;;
52180;SDS011;38158;53.338;6.514;2023-02-04T08:15:29;15.85;;;2.38;;
52180;SDS011;38158;53.338;6.514;2023-02-04T08:17:55;15.82;;;2.05;;
52180;SDS011;38158;53.338;6.514;2023-02-04T08:20:20;12.10;;;1.60;;
52180;SDS011;38158;53.338;6.514;2023-02-04T08:22:46;12.63;;;2.65;;
52180;SDS011;38158;53.338;6.514;2023-02-04T08:25:12;13.10;;;1.63;;
52180;SDS011;38158;53.338;6.514;2023-02-04T08:27:38;14.55;;;1.65;;
52180;SDS011;38158;53.338;6.514;2023-02-04T08:30:04;14.23;;;1.50;;
52180;SDS011;38158;53.338;6.514;2023-02-04T08:32:30;10.13;;;2.55;;
52180;SDS011;38158;53.338;6.514;2023-02-04T08:34:56;15.50;;;2.55;;
52180;SDS011;38158;53.338;6.514;2023-02-04T08:37:22;10.45;;;1.58;;
52180;SDS011;38158;53.338;6.514;2023-02-04T08:39:48;11.30;;;2.00;;
52180;SDS011;38158;53.338;6.514;2023-02-04T08:42:14;12.82;;;1.95;;
52180;SDS011;38158;53.338;6.514;2023-02-04T08:44:40;12.53;;;2.73;;
52180;SDS011;38158;53.338;6.514;2023-02-04T08:47:07;11.75;;;2.00;;
52180;SDS011;38158;53.338;6.514;2023-02-04T08:49:34;9.80;;;1.80;;
52180;SDS011;38158;53.338;6.514;2023-02-04T08:52:03;6.50;;;1.60;;
52180;SDS011;38158;53.338;6.514;2023-02-04T08:54:31;8.65;;;2.15;;
52180;SDS011;38158;53.338;6.514;2023-02-04T08:56:57;12.43;;;1.77;;
52180;SDS011;38158;53.338;6.514;2023-02-04T08:59:23;7.47;;;1.55;;
52180;SDS011;38158;53.338;6.514;2023-02-04T09:01:50;7.50;;;1.38;;
52180;SDS011;38158;53.338;6.514;2023-02-04T09:04:20;8.60;;;1.20;;
52180;SDS011;38158;53.338;6.514;2023-02-04T09:06:47;7.95;;;1.15;;
52180;SDS011;38158;53.338;6.514;2023-02-04T09:09:13;13.57;;;2.50;;
52180;SDS011;38158;53.338;6.514;2023-02-04T09:11:40;9.70;;;1.87;;
52180;SDS011;38158;53.338;6.514;2023-02-04T09:14:06;5.68;;;1.30;;
52180;SDS011;38158;53.338;6.514;2023-02-04T09:16:32;7.07;;;1.48;;
52180;SDS011;38158;53.338;6.514;2023-02-04T09:18:58;10.00;;;3.00;;
52180;SDS011;38158;53.338;6.514;2023-02-04T09:21:24;15.20;;;1.80;;
52180;SDS011;38158;53.338;6.514;2023-02-04T09:23:50;9.27;;;2.38;;
52180;SDS011;38158;53.338;6.514;2023-02-04T09:26:16;10.38;;;2.10;;
52180;SDS011;38158;53.338;6.514;2023-02-04T09:28:42;22.45;;;2.47;;
52180;SDS011;38158;53.338;6.514;2023-02-04T09:31:07;13.43;;;1.45;;
52180;SDS011;38158;53.338;6.514;2023-02-04T09:33:34;7.93;;;1.58;;
52180;SDS011;38158;53.338;6.514;2023-02-04T09:36:01;12.50;;;1.70;;
52180;SDS011;38158;53.338;6.514;2023-02-04T09:38:27;5.70;;;1.40;;
52180;SDS011;38158;53.338;6.514;2023-02-04T09:40:53;11.93;;;2.33;;
52180;SDS011;38158;53.338;6.514;2023-02-04T09:43:26;8.68;;;1.45;;
52180;SDS011;38158;53.338;6.514;2023-02-04T09:45:54;8.90;;;2.00;;
52180;SDS011;38158;53.338;6.514;2023-02-04T09:48:21;10.20;;;2.00;;
52180;SDS011;38158;53.338;6.514;2023-02-04T09:50:48;12.00;;;2.58;;
52180;SDS011;38158;53.338;6.514;2023-02-04T09:55:43;8.95;;;1.38;;
52180;SDS011;38158;53.338;6.514;2023-02-04T09:58:14;14.82;;;2.55;;
52180;SDS011;38158;53.338;6.514;2023-02-04T10:00:42;10.98;;;1.60;;
52180;SDS011;38158;53.338;6.514;2023-02-04T10:03:11;8.27;;;1.35;;
52180;SDS011;38158;53.338;6.514;2023-02-04T10:05:40;7.28;;;1.40;;
52180;SDS011;38158;53.338;6.514;2023-02-04T10:08:06;10.60;;;1.65;;
52180;SDS011;38158;53.338;6.514;2023-02-04T10:10:34;14.18;;;2.28;;
52180;SDS011;38158;53.338;6.514;2023-02-04T10:13:00;8.38;;;1.33;;
52180;SDS011;38158;53.338;6.514;2023-02-04T10:15:27;11.98;;;1.52;;
52180;SDS011;38158;53.338;6.514;2023-02-04T10:17:54;8.38;;;1.92;;
52180;SDS011;38158;53.338;6.514;2023-02-04T10:20:25;5.07;;;1.67;;
52180;SDS011;38158;53.338;6.514;2023-02-04T10:22:52;10.48;;;1.90;;
52180;SDS011;38158;53.338;6.514;2023-02-04T10:25:19;10.80;;;1.70;;
52180;SDS011;38158;53.338;6.514;2023-02-04T10:27:50;6.40;;;1.60;;
52180;SDS011;38158;53.338;6.514;2023-02-04T10:30:24;9.18;;;1.70;;
52180;SDS011;38158;53.338;6.514;2023-02-04T10:32:50;10.75;;;1.60;;
52180;SDS011;38158;53.338;6.514;2023-02-04T10:35:16;6.32;;;1.50;;
52180;SDS011;38158;53.338;6.514;2023-02-04T10:37:44;12.13;;;1.77;;
52180;SDS011;38158;53.338;6.514;2023-02-04T10:42:56;12.98;;;1.67;;
52180;SDS011;38158;53.338;6.514;2023-02-04T10:47:53;9.88;;;2.30;;
52180;SDS011;38158;53.338;6.514;2023-02-04T10:52:50;10.27;;;1.52;;
52180;SDS011;38158;53.338;6.514;2023-02-04T10:55:45;7.88;;;1.58;;
52180;SDS011;38158;53.338;6.514;2023-02-04T10:58:17;10.40;;;1.98;;
52180;SDS011;38158;53.338;6.514;2023-02-04T11:00:48;3.92;;;1.45;;
52180;SDS011;38158;53.338;6.514;2023-02-04T11:05:50;13.63;;;2.35;;
52180;SDS011;38158;53.338;6.514;2023-02-04T11:08:19;11.75;;;1.70;;
52180;SDS011;38158;53.338;6.514;2023-02-04T11:10:48;11.05;;;2.03;;
52180;SDS011;38158;53.338;6.514;2023-02-04T11:13:24;11.10;;;2.47;;
52180;SDS011;38158;53.338;6.514;2023-02-04T11:16:06;9.70;;;2.28;;
52180;SDS011;38158;53.338;6.514;2023-02-04T11:18:55;11.05;;;1.75;;
52180;SDS011;38158;53.338;6.514;2023-02-04T11:21:24;9.45;;;2.47;;
52180;SDS011;38158;53.338;6.514;2023-02-04T11:34:07;12.30;;;2.40;;
52180;SDS011;38158;53.338;6.514;2023-02-04T11:36:34;8.98;;;2.38;;
52180;SDS011;38158;53.338;6.514;2023-02-04T11:39:15;9.50;;;2.22;;
52180;SDS011;38158;53.338;6.514;2023-02-04T11:41:43;7.13;;;1.92;;
52180;SDS011;38158;53.338;6.514;2023-02-04T11:44:10;8.75;;;1.90;;
52180;SDS011;38158;53.338;6.514;2023-02-04T11:46:37;4.75;;;1.52;;
52180;SDS011;38158;53.338;6.514;2023-02-04T11:49:03;7.10;;;1.58;;
52180;SDS011;38158;53.338;6.514;2023-02-04T11:51:29;5.95;;;1.10;;
52180;SDS011;38158;53.338;6.514;2023-02-04T11:53:57;9.88;;;1.70;;
52180;SDS011;38158;53.338;6.514;2023-02-04T11:56:26;9.45;;;1.85;;
52180;SDS011;38158;53.338;6.514;2023-02-04T11:58:54;8.13;;;1.50;;
52180;SDS011;38158;53.338;6.514;2023-02-04T12:01:23;7.85;;;1.70;;
52180;SDS011;38158;53.338;6.514;2023-02-04T12:04:01;8.57;;;1.23;;
52180;SDS011;38158;53.338;6.514;2023-02-04T12:06:30;5.15;;;1.50;;
52180;SDS011;38158;53.338;6.514;2023-02-04T12:09:07;12.43;;;1.75;;
52180;SDS011;38158;53.338;6.514;2023-02-04T12:11:59;9.40;;;1.77;;
52180;SDS011;38158;53.338;6.514;2023-02-04T12:14:27;14.25;;;1.70;;
52180;SDS011;38158;53.338;6.514;2023-02-04T12:16:55;8.32;;;1.70;;
52180;SDS011;38158;53.338;6.514;2023-02-04T12:19:21;8.63;;;2.35;;
52180;SDS011;38158;53.338;6.514;2023-02-04T12:21:47;9.55;;;2.28;;
52180;SDS011;38158;53.338;6.514;2023-02-04T12:24:13;6.63;;;1.60;;
52180;SDS011;38158;53.338;6.514;2023-02-04T12:26:38;7.75;;;1.80;;
52180;SDS011;38158;53.338;6.514;2023-02-04T12:29:04;6.95;;;1.58;;
52180;SDS011;38158;53.338;6.514;2023-02-04T12:31:30;9.63;;;2.30;;
52180;SDS011;38158;53.338;6.514;2023-02-04T12:33:57;5.25;;;2.17;;
52180;SDS011;38158;53.338;6.514;2023-02-04T12:36:23;7.60;;;1.65;;
52180;SDS011;38158;53.338;6.514;2023-02-04T12:38:52;8.20;;;1.80;;
52180;SDS011;38158;53.338;6.514;2023-02-04T12:41:18;6.15;;;1.75;;
52180;SDS011;38158;53.338;6.514;2023-02-04T12:43:44;8.38;;;2.20;;
52180;SDS011;38158;53.338;6.514;2023-02-04T12:46:10;9.10;;;2.60;;
52180;SDS011;38158;53.338;6.514;2023-02-04T12:48:36;6.93;;;1.63;;
52180;SDS011;38158;53.338;6.514;2023-02-04T12:51:05;4.57;;;1.70;;
52180;SDS011;38158;53.338;6.514;2023-02-04T12:53:31;3.63;;;1.45;;
52180;SDS011;38158;53.338;6.514;2023-02-04T12:55:57;7.47;;;1.65;;
52180;SDS011;38158;53.338;6.514;2023-02-04T12:58:23;20.63;;;2.65;;
52180;SDS011;38158;53.338;6.514;2023-02-04T13:00:49;13.18;;;1.83;;
52180;SDS011;38158;53.338;6.514;2023-02-04T13:03:15;4.97;;;1.63;;
52180;SDS011;38158;53.338;6.514;2023-02-04T13:05:41;8.93;;;2.10;;
52180;SDS011;38158;53.338;6.514;2023-02-04T13:08:06;10.27;;;2.75;;
52180;SDS011;38158;53.338;6.514;2023-02-04T13:10:32;8.40;;;1.98;;
52180;SDS011;38158;53.338;6.514;2023-02-04T13:12:58;7.40;;;1.50;;
52180;SDS011;38158;53.338;6.514;2023-02-04T13:15:24;8.70;;;2.30;;
52180;SDS011;38158;53.338;6.514;2023-02-04T13:17:50;13.02;;;2.00;;
52180;SDS011;38158;53.338;6.514;2023-02-04T13:20:16;5.55;;;2.10;;
52180;SDS011;38158;53.338;6.514;2023-02-04T13:22:42;9.97;;;2.83;;
52180;SDS011;38158;53.338;6.514;2023-02-04T13:25:08;16.95;;;3.58;;
52180;SDS011;38158;53.338;6.514;2023-02-04T13:27:38;11.27;;;3.13;;
52180;SDS011;38158;53.338;6.514;2023-02-04T13:30:05;10.07;;;1.90;;
52180;SDS011;38158;53.338;6.514;2023-02-04T13:34:57;10.60;;;2.55;;
52180;SDS011;38158;53.338;6.514;2023-02-04T13:37:23;6.97;;;1.60;;
52180;SDS011;38158;53.338;6.514;2023-02-04T13:39:49;10.25;;;2.58;;
52180;SDS011;38158;53.338;6.514;2023-02-04T13:42:14;5.65;;;1.60;;
52180;SDS011;38158;53.338;6.514;2023-02-04T13:44:40;11.55;;;2.85;;
52180;SDS011;38158;53.338;6.514;2023-02-04T13:47:07;8.30;;;2.17;;
52180;SDS011;38158;53.338;6.514;2023-02-04T13:49:33;7.50;;;3.15;;
52180;SDS011;38158;53.338;6.514;2023-02-04T13:51:58;7.30;;;3.60;;
52180;SDS011;38158;53.338;6.514;2023-02-04T13:54:24;9.85;;;5.45;;
52180;SDS011;38158;53.338;6.514;2023-02-04T13:56:50;10.20;;;2.40;;
52180;SDS011;38158;53.338;6.514;2023-02-04T13:59:16;7.15;;;2.67;;
52180;SDS011;38158;53.338;6.514;2023-02-04T14:01:41;20.38;;;14.40;;
52180;SDS011;38158;53.338;6.514;2023-02-04T14:04:07;69.13;;;54.40;;
52180;SDS011;38158;53.338;6.514;2023-02-04T14:06:33;50.33;;;41.90;;
52180;SDS011;38158;53.338;6.514;2023-02-04T14:09:02;56.75;;;50.83;;
52180;SDS011;38158;53.338;6.514;2023-02-04T14:11:28;6.35;;;5.68;;
52180;SDS011;38158;53.338;6.514;2023-02-04T14:13:54;7.88;;;3.17;;
52180;SDS011;38158;53.338;6.514;2023-02-04T14:16:20;6.72;;;2.28;;
52180;SDS011;38158;53.338;6.514;2023-02-04T14:18:46;6.53;;;2.35;;
52180;SDS011;38158;53.338;6.514;2023-02-04T14:21:12;8.48;;;3.25;;
52180;SDS011;38158;53.338;6.514;2023-02-04T14:23:37;7.65;;;4.40;;
52180;SDS011;38158;53.338;6.514;2023-02-04T14:26:03;11.40;;;7.95;;
52180;SDS011;38158;53.338;6.514;2023-02-04T14:28:29;11.98;;;6.82;;
52180;SDS011;38158;53.338;6.514;2023-02-04T14:30:54;10.80;;;3.55;;
52180;SDS011;38158;53.338;6.514;2023-02-04T14:33:20;5.63;;;3.03;;
52180;SDS011;38158;53.338;6.514;2023-02-04T14:35:46;6.15;;;1.83;;
52180;SDS011;38158;53.338;6.514;2023-02-04T14:38:12;6.43;;;1.52;;
52180;SDS011;38158;53.338;6.514;2023-02-04T14:40:40;6.88;;;1.65;;
52180;SDS011;38158;53.338;6.514;2023-02-04T14:43:06;4.20;;;1.67;;
52180;SDS011;38158;53.338;6.514;2023-02-04T14:45:35;4.75;;;1.55;;
52180;SDS011;38158;53.338;6.514;2023-02-04T14:48:01;3.58;;;1.10;;
52180;SDS011;38158;53.338;6.514;2023-02-04T14:50:28;5.30;;;1.97;;
52180;SDS011;38158;53.338;6.514;2023-02-04T14:52:55;6.40;;;1.13;;
52180;SDS011;38158;53.338;6.514;2023-02-04T14:55:21;6.50;;;1.40;;
52180;SDS011;38158;53.338;6.514;2023-02-04T14:57:48;6.95;;;2.63;;
52180;SDS011;38158;53.338;6.514;2023-02-04T15:00:14;5.90;;;1.40;;
52180;SDS011;38158;53.338;6.514;2023-02-04T15:02:40;4.18;;;1.23;;
52180;SDS011;38158;53.338;6.514;2023-02-04T15:05:06;5.22;;;1.23;;